Time,TemperatureF,DewpointF,PressureIn,WindDirection,WindDirectionDegrees,WindSpeedMPH,WindSpeedGustMPH,Humidity,HourlyPrecipIn,Conditions,Clouds,dailyrainin,SoftwareType,DateUTC
2013-04-24 00:01:00,38.3,33.6,30.07,NNE,31,0.0,0.0,83,0.00,,CLR,0.00,VWS V13.00,2013-04-24 04:01:00,
2013-04-24 00:02:00,38.1,33.4,30.07,NNE,31,0.0,0.0,83,0.00,,CLR,0.00,VWS V13.00,2013-04-24 04:02:00,
2013-04-24 00:07:00,38.3,33.6,30.07,NNE,31,0.0,0.0,83,0.00,,CLR,0.00,VWS V13.00,2013-04-24 04:07:00,
2013-04-24 00:12:00,38.3,33.6,30.07,NNE,31,0.0,0.0,83,0.00,,CLR,0.00,VWS V13.00,2013-04-24 04:12:00,
2013-04-24 00:17:00,37.9,33.2,30.07,NNE,31,0.0,0.0,83,0.00,,CLR,0.00,VWS V13.00,2013-04-24 04:17:00,
2013-04-24 00:22:00,37.6,32.9,30.07,NNE,31,0.0,0.0,83,0.00,,CLR,0.00,VWS V13.00,2013-04-24 04:22:00,
2013-04-24 00:27:00,37.2,32.8,30.07,NNE,31,0.0,0.0,84,0.00,,CLR,0.00,VWS V13.00,2013-04-24 04:27:00,
2013-04-24 00:32:00,37.0,32.7,30.07,NNE,31,0.0,0.0,84,0.00,,CLR,0.00,VWS V13.00,2013-04-24 04:32:00,
2013-04-24 00:37:00,37.2,32.8,30.07,NNE,31,0.0,0.0,84,0.00,,CLR,0.00,VWS V13.00,2013-04-24 04:37:00,
2013-04-24 00:42:00,37.6,33.2,30.04,NNE,31,0.0,0.0,84,0.00,,CLR,0.00,VWS V13.00,2013-04-24 04:42:00,
2013-04-24 00:47:00,37.4,33.0,30.04,NNE,31,0.0,0.0,84,0.00,,CLR,0.00,VWS V13.00,2013-04-24 04:47:00,
2013-04-24 00:52:00,37.0,33.0,30.04,NNE,31,0.0,0.0,85,0.00,,CLR,0.00,VWS V13.00,2013-04-24 04:52:00,
2013-04-24 00:57:00,36.9,32.8,30.07,NNE,31,0.0,0.0,85,0.00,,CLR,0.00,VWS V13.00,2013-04-24 04:57:00,
2013-04-24 01:02:00,36.3,32.2,30.07,NNE,31,2.7,2.7,85,0.00,,CLR,0.00,VWS V13.00,2013-04-24 05:02:00,
2013-04-24 01:08:00,36.1,32.1,30.07,NNE,31,0.0,2.7,85,0.00,,CLR,0.00,VWS V13.00,2013-04-24 05:08:00,
2013-04-24 01:13:00,35.8,31.7,30.04,NNE,31,0.0,2.7,85,0.00,,CLR,0.00,VWS V13.00,2013-04-24 05:13:00,
2013-04-24 01:18:00,35.8,31.7,30.04,NNE,31,0.0,2.7,85,0.00,,CLR,0.00,VWS V13.00,2013-04-24 05:18:00,
2013-04-24 01:23:00,35.8,31.7,30.04,NNE,31,0.0,0.0,85,0.00,,CLR,0.00,VWS V13.00,2013-04-24 05:23:00,
2013-04-24 01:28:00,35.8,31.7,30.04,NNE,31,0.0,0.0,85,0.00,,CLR,0.00,VWS V13.00,2013-04-24 05:28:00,
2013-04-24 01:33:00,35.6,31.5,30.04,NNE,31,0.0,2.2,85,0.00,,CLR,0.00,VWS V13.00,2013-04-24 05:33:00,
2013-04-24 01:38:00,35.6,31.5,30.04,NNE,31,0.0,2.2,85,0.00,,CLR,0.00,VWS V13.00,2013-04-24 05:38:00,
2013-04-24 01:43:00,35.6,31.8,30.04,NNE,31,0.0,0.0,86,0.00,,CLR,0.00,VWS V13.00,2013-04-24 05:43:00,
2013-04-24 01:48:00,35.8,32.0,30.04,NNE,31,0.0,0.0,86,0.00,,CLR,0.00,VWS V13.00,2013-04-24 05:48:00,
2013-04-24 01:53:00,35.8,32.0,30.04,NNE,31,0.0,0.0,86,0.00,,CLR,0.00,VWS V13.00,2013-04-24 05:53:00,
2013-04-24 01:58:00,36.0,32.2,30.04,NNE,31,0.0,0.0,86,0.00,,CLR,0.00,VWS V13.00,2013-04-24 05:58:00,
2013-04-24 02:03:00,36.0,32.5,30.04,NNE,31,0.0,0.0,87,0.00,,CLR,0.00,VWS V13.00,2013-04-24 06:03:00,
2013-04-24 02:08:00,35.8,32.3,30.04,NNE,31,0.0,0.0,87,0.00,,CLR,0.00,VWS V13.00,2013-04-24 06:08:00,
2013-04-24 02:13:00,35.4,31.9,30.04,NNE,31,0.0,0.0,87,0.00,,CLR,0.00,VWS V13.00,2013-04-24 06:13:00,
2013-04-24 02:18:00,35.2,31.8,30.04,NNE,31,2.2,2.2,87,0.00,,CLR,0.00,VWS V13.00,2013-04-24 06:18:00,
2013-04-24 02:23:00,35.1,31.6,30.04,NNE,31,0.0,2.2,87,0.00,,CLR,0.00,VWS V13.00,2013-04-24 06:23:00,
2013-04-24 02:29:00,35.1,31.6,30.04,NNE,31,0.0,2.2,87,0.00,,CLR,0.00,VWS V13.00,2013-04-24 06:29:00,
2013-04-24 02:34:00,35.1,31.9,30.04,NNE,31,0.0,2.2,88,0.00,,CLR,0.00,VWS V13.00,2013-04-24 06:34:00,
2013-04-24 02:39:00,35.1,31.9,30.04,NNE,31,0.0,2.2,88,0.00,,CLR,0.00,VWS V13.00,2013-04-24 06:39:00,
2013-04-24 02:44:00,34.9,31.7,30.01,NNE,31,0.0,0.0,88,0.00,,CLR,0.00,VWS V13.00,2013-04-24 06:44:00,
2013-04-24 02:49:00,35.1,31.9,30.01,NNE,31,0.0,0.0,88,0.00,,CLR,0.00,VWS V13.00,2013-04-24 06:49:00,
2013-04-24 02:54:00,34.9,31.7,30.01,NNE,31,0.0,0.0,88,0.00,,CLR,0.00,VWS V13.00,2013-04-24 06:54:00,
2013-04-24 02:59:00,34.7,31.5,30.01,NNE,31,0.0,0.0,88,0.00,,CLR,0.00,VWS V13.00,2013-04-24 06:59:00,
2013-04-24 03:04:00,34.5,31.3,30.01,NNE,31,0.0,0.0,88,0.00,,CLR,0.00,VWS V13.00,2013-04-24 07:04:00,
2013-04-24 03:09:00,34.3,31.2,30.01,NNE,31,0.0,0.0,88,0.00,,CLR,0.00,VWS V13.00,2013-04-24 07:09:00,
2013-04-24 03:14:00,34.3,31.2,30.01,NNE,31,0.0,0.0,88,0.00,,CLR,0.00,VWS V13.00,2013-04-24 07:14:00,
2013-04-24 03:19:00,34.2,31.0,30.01,NNE,31,0.0,0.0,88,0.00,,CLR,0.00,VWS V13.00,2013-04-24 07:19:00,
2013-04-24 03:24:00,34.0,30.8,30.01,NNE,31,0.0,0.0,88,0.00,,CLR,0.00,VWS V13.00,2013-04-24 07:24:00,
2013-04-24 03:29:00,34.0,31.1,30.01,NNE,31,0.0,0.0,89,0.00,,CLR,0.00,VWS V13.00,2013-04-24 07:29:00,
2013-04-24 03:34:00,34.2,31.3,30.01,NNE,31,0.0,0.0,89,0.00,,,0.00,VWS V13.00,2013-04-24 07:34:00,
2013-04-24 03:39:00,34.2,31.3,30.01,NNE,31,0.0,0.0,89,0.00,,,0.00,VWS V13.00,2013-04-24 07:39:00,
2013-04-24 03:45:00,34.0,31.1,30.01,NNE,31,0.0,0.0,89,0.00,,,0.00,VWS V13.00,2013-04-24 07:45:00,
2013-04-24 03:50:00,34.0,31.1,30.01,NNE,31,0.0,0.0,89,0.00,,,0.00,VWS V13.00,2013-04-24 07:50:00,
2013-04-24 03:55:00,34.2,31.3,30.01,NNE,31,0.0,0.0,89,0.00,,,0.00,VWS V13.00,2013-04-24 07:55:00,
2013-04-24 04:00:00,34.2,31.3,30.01,NNE,31,0.0,0.0,89,0.00,,,0.00,VWS V13.00,2013-04-24 08:00:00,
2013-04-24 04:05:00,34.2,31.3,30.01,NNE,31,0.0,0.0,89,0.00,,,0.00,VWS V13.00,2013-04-24 08:05:00,
2013-04-24 04:10:00,34.9,32.0,30.01,NNE,31,0.0,0.0,89,0.00,,,0.00,VWS V13.00,2013-04-24 08:10:00,
2013-04-24 04:15:00,34.9,32.2,30.01,NNE,31,0.0,0.0,90,0.00,,,0.00,VWS V13.00,2013-04-24 08:15:00,
2013-04-24 04:20:00,34.0,31.4,30.01,NNE,31,0.0,0.0,90,0.00,,,0.00,VWS V13.00,2013-04-24 08:20:00,
2013-04-24 04:25:00,33.8,31.2,30.01,NNE,31,0.0,0.0,90,0.00,,,0.00,VWS V13.00,2013-04-24 08:25:00,
2013-04-24 04:30:00,33.6,31.0,30.01,NNE,31,0.0,0.0,90,0.00,,,0.00,VWS V13.00,2013-04-24 08:30:00,
2013-04-24 04:35:00,33.3,30.6,30.01,NNE,31,0.0,0.0,90,0.00,,,0.00,VWS V13.00,2013-04-24 08:35:00,
2013-04-24 04:40:00,33.3,30.6,30.01,NNE,31,0.0,0.0,90,0.00,,,0.00,VWS V13.00,2013-04-24 08:40:00,
2013-04-24 04:45:00,33.1,30.5,30.01,NNE,31,0.0,0.0,90,0.00,,,0.00,VWS V13.00,2013-04-24 08:45:00,
2013-04-24 04:50:00,33.3,30.6,30.01,NNE,31,0.0,0.0,90,0.00,,,0.00,VWS V13.00,2013-04-24 08:50:00,
2013-04-24 04:56:00,33.1,30.5,30.01,NNE,31,0.0,0.0,90,0.00,,,0.00,VWS V13.00,2013-04-24 08:56:00,
2013-04-24 05:01:00,32.9,30.3,30.01,NNE,31,0.0,0.0,90,0.00,,,0.00,VWS V13.00,2013-04-24 09:01:00,
2013-04-24 05:06:00,32.9,30.3,30.01,NNE,31,0.0,0.0,90,0.00,,,0.00,VWS V13.00,2013-04-24 09:06:00,
2013-04-24 05:11:00,33.1,30.5,30.01,NNE,31,0.0,0.0,90,0.00,,,0.00,VWS V13.00,2013-04-24 09:11:00,
2013-04-24 05:16:00,33.1,30.5,30.01,NNE,31,0.0,0.0,90,0.00,,,0.00,VWS V13.00,2013-04-24 09:16:00,
2013-04-24 05:21:00,32.9,30.3,30.01,NNE,31,0.0,0.0,90,0.00,,,0.00,VWS V13.00,2013-04-24 09:21:00,
2013-04-24 05:26:00,32.7,30.1,30.01,NNE,31,0.0,0.0,90,0.00,,,0.00,VWS V13.00,2013-04-24 09:26:00,
2013-04-24 05:31:00,32.7,30.1,30.01,NNE,31,2.2,3.1,90,0.00,,BKN024,0.00,VWS V13.00,2013-04-24 09:31:00,
2013-04-24 05:36:00,32.9,30.3,30.01,NNE,31,0.0,3.1,90,0.00,,BKN024,0.00,VWS V13.00,2013-04-24 09:36:00,
2013-04-24 05:41:00,32.9,30.6,30.01,NNE,31,0.0,0.0,91,0.00,,BKN024,0.00,VWS V13.00,2013-04-24 09:41:00,
2013-04-24 05:46:00,32.7,30.4,30.01,NNE,31,0.0,0.0,91,0.00,,BKN024,0.00,VWS V13.00,2013-04-24 09:46:00,
2013-04-24 05:51:00,32.7,30.4,30.01,NNE,24,3.6,3.6,91,0.00,,SCT024,0.00,VWS V13.00,2013-04-24 09:51:00,
2013-04-24 05:56:00,32.5,30.2,30.01,NNE,24,3.1,3.6,91,0.00,,SCT024,0.00,VWS V13.00,2013-04-24 09:56:00,
2013-04-24 06:01:00,32.4,30.0,30.01,NNE,24,0.0,0.0,91,0.00,,SCT024,0.00,VWS V13.00,2013-04-24 10:01:00,
2013-04-24 06:06:00,32.5,30.2,30.01,NNE,24,0.0,0.0,91,0.00,,SCT024,0.00,VWS V13.00,2013-04-24 10:06:00,
2013-04-24 06:11:00,32.5,30.2,30.01,NNE,24,0.0,0.0,91,0.00,,SCT024,0.00,VWS V13.00,2013-04-24 10:11:00,
2013-04-24 06:16:00,32.5,30.2,30.01,NNE,24,0.0,0.0,91,0.00,,SCT024,0.00,VWS V13.00,2013-04-24 10:16:00,
2013-04-24 06:22:00,33.1,30.7,30.01,NNE,24,0.0,0.0,91,0.00,,SCT024,0.00,VWS V13.00,2013-04-24 10:22:00,
2013-04-24 06:27:00,33.8,31.5,30.01,NNE,24,0.0,0.0,91,0.00,,SCT024,0.00,VWS V13.00,2013-04-24 10:27:00,
2013-04-24 06:32:00,34.0,31.9,30.01,NNE,24,0.0,0.0,92,0.00,,SCT024,0.00,VWS V13.00,2013-04-24 10:32:00,
2013-04-24 06:37:00,34.2,32.1,30.01,NNE,24,0.0,0.0,92,0.00,,SCT024,0.00,VWS V13.00,2013-04-24 10:37:00,
2013-04-24 06:42:00,35.8,33.4,30.01,NNE,24,0.0,0.0,91,0.00,,SCT024,0.00,VWS V13.00,2013-04-24 10:42:00,
2013-04-24 06:47:00,36.9,34.5,30.01,NNE,24,0.0,0.0,91,0.00,,SCT024,0.00,VWS V13.00,2013-04-24 10:47:00,
2013-04-24 06:52:00,37.2,34.8,30.01,NNE,24,0.0,2.7,91,0.00,,SCT024,0.00,VWS V13.00,2013-04-24 10:52:00,
2013-04-24 06:57:00,37.6,34.9,30.01,NNE,24,0.0,2.7,90,0.00,,SCT024,0.00,VWS V13.00,2013-04-24 10:57:00,
2013-04-24 07:02:00,37.9,35.0,30.01,NNE,24,0.0,0.0,89,0.00,,SCT024,0.00,VWS V13.00,2013-04-24 11:02:00,
2013-04-24 07:07:00,39.4,36.1,30.01,NNE,24,0.0,0.0,88,0.00,,SCT024,0.00,VWS V13.00,2013-04-24 11:07:00,
2013-04-24 07:12:00,40.6,37.4,30.01,NNE,24,0.0,0.0,88,0.00,,SCT024,0.00,VWS V13.00,2013-04-24 11:12:00,
2013-04-24 07:17:00,40.8,37.3,30.01,NNE,24,0.0,0.0,87,0.00,,SCT024,0.00,VWS V13.00,2013-04-24 11:17:00,
2013-04-24 07:22:00,41.2,37.3,30.01,NNE,24,0.0,0.0,86,0.00,,SCT024,0.00,VWS V13.00,2013-04-24 11:22:00,
2013-04-24 07:27:00,42.3,38.4,30.01,NNE,24,0.0,0.0,86,0.00,,SCT024,0.00,VWS V13.00,2013-04-24 11:27:00,
2013-04-24 07:32:00,43.5,39.3,30.01,NNE,24,0.0,0.0,85,0.00,,SCT001,0.00,VWS V13.00,2013-04-24 11:32:00,
2013-04-24 07:37:00,45.1,40.6,30.01,NNE,24,0.0,0.0,84,0.00,,SCT001,0.00,VWS V13.00,2013-04-24 11:37:00,
2013-04-24 07:42:00,45.1,40.3,30.01,NNE,24,0.0,0.0,83,0.00,,SCT001,0.00,VWS V13.00,2013-04-24 11:42:00,
2013-04-24 07:47:00,47.1,41.6,30.01,NNE,24,0.0,0.0,81,0.00,,SCT001,0.00,VWS V13.00,2013-04-24 11:47:00,
2013-04-24 07:52:00,48.4,42.2,30.01,NNE,24,0.0,0.0,79,0.00,,SCT001,0.00,VWS V13.00,2013-04-24 11:52:00,
2013-04-24 07:57:00,51.1,43.8,30.01,NNE,24,0.0,0.0,76,0.00,,SCT001,0.00,VWS V13.00,2013-04-24 11:57:00,
2013-04-24 08:03:00,52.9,44.8,30.01,SSW,208,2.7,3.6,74,0.00,,SCT001,0.00,VWS V13.00,2013-04-24 12:03:00,
2013-04-24 08:08:00,52.9,43.8,30.01,SW,214,4.9,5.8,71,0.00,,SCT001,0.00,VWS V13.00,2013-04-24 12:08:00,
2013-04-24 08:13:00,52.0,41.4,30.01,SSW,207,0.0,5.8,67,0.00,,SCT001,0.00,VWS V13.00,2013-04-24 12:13:00,
2013-04-24 08:18:00,50.9,40.0,30.01,WSW,245,2.2,5.8,66,0.00,,SCT001,0.00,VWS V13.00,2013-04-24 12:18:00,
2013-04-24 08:23:00,51.4,40.5,30.01,South,183,2.2,4.9,66,0.00,,SCT001,0.00,VWS V13.00,2013-04-24 12:23:00,
2013-04-24 08:28:00,51.4,40.1,30.01,SSW,206,4.0,7.2,65,0.00,,SCT001,0.00,VWS V13.00,2013-04-24 12:28:00,
2013-04-24 08:33:00,51.6,40.2,30.01,South,178,2.7,7.2,65,0.00,,CLR,0.00,VWS V13.00,2013-04-24 12:33:00,
2013-04-24 08:38:00,53.8,41.5,30.01,SW,220,5.4,7.2,63,0.00,,CLR,0.00,VWS V13.00,2013-04-24 12:38:00,
2013-04-24 08:43:00,54.1,40.6,30.01,SSW,203,6.3,8.7,60,0.00,,CLR,0.00,VWS V13.00,2013-04-24 12:43:00,
2013-04-24 08:48:00,55.2,41.2,30.01,SW,226,8.1,8.7,59,0.00,,CLR,0.00,VWS V13.00,2013-04-24 12:48:00,
2013-04-24 08:53:00,55.4,40.4,30.01,South,176,4.9,8.7,57,0.00,,CLR,0.00,VWS V13.00,2013-04-24 12:53:00,
2013-04-24 08:58:00,55.9,40.5,30.01,NW,310,5.8,8.7,56,0.00,,CLR,0.00,VWS V13.00,2013-04-24 12:58:00,
2013-04-24 09:03:00,56.5,41.0,30.01,SSW,200,3.1,6.3,56,0.00,,CLR,0.00,VWS V13.00,2013-04-24 13:03:00,
2013-04-24 09:08:00,56.7,40.7,30.01,SW,221,6.3,8.3,55,0.00,,CLR,0.00,VWS V13.00,2013-04-24 13:08:00,
2013-04-24 09:14:00,56.8,40.9,30.01,South,176,5.8,8.3,55,0.00,,CLR,0.00,VWS V13.00,2013-04-24 13:14:00,
2013-04-24 09:19:00,56.7,40.2,30.01,SSW,194,6.3,10.1,54,0.00,,CLR,0.00,VWS V13.00,2013-04-24 13:19:00,
2013-04-24 09:24:00,57.2,40.7,30.01,SSW,192,5.4,7.6,54,0.00,,CLR,0.00,VWS V13.00,2013-04-24 13:24:00,
2013-04-24 09:29:00,57.7,40.7,29.98,SSW,208,4.9,8.3,53,0.00,,CLR,0.00,VWS V13.00,2013-04-24 13:29:00,
2013-04-24 09:34:00,58.5,41.4,29.98,WSW,253,5.4,8.3,53,0.00,,CLR,0.00,VWS V13.00,2013-04-24 13:34:00,
2013-04-24 09:39:00,58.5,40.9,29.98,South,176,4.9,8.3,52,0.00,,CLR,0.00,VWS V13.00,2013-04-24 13:39:00,
2013-04-24 09:44:00,58.3,40.2,29.98,NNW,342,3.6,6.7,51,0.00,,CLR,0.00,VWS V13.00,2013-04-24 13:44:00,
2013-04-24 09:49:00,59.0,40.9,29.98,WSW,258,6.3,6.7,51,0.00,,CLR,0.00,VWS V13.00,2013-04-24 13:49:00,
2013-04-24 09:54:00,59.0,40.4,29.98,SW,218,10.1,10.5,50,0.00,,CLR,0.00,VWS V13.00,2013-04-24 13:54:00,
2013-04-24 09:59:00,59.7,41.1,29.98,SSW,207,5.8,10.5,50,0.00,,CLR,0.00,VWS V13.00,2013-04-24 13:59:00,
2013-04-24 10:04:00,58.6,40.1,29.98,SW,214,9.6,9.6,50,0.00,,CLR,0.00,VWS V13.00,2013-04-24 14:04:00,
2013-04-24 10:09:00,58.6,40.1,29.98,SW,218,2.7,9.6,50,0.00,,CLR,0.00,VWS V13.00,2013-04-24 14:09:00,
2013-04-24 10:14:00,59.4,40.2,29.98,SW,225,4.0,9.6,49,0.00,,CLR,0.00,VWS V13.00,2013-04-24 14:14:00,
2013-04-24 10:19:00,60.8,41.5,29.98,SW,220,7.6,9.6,49,0.00,,CLR,0.00,VWS V13.00,2013-04-24 14:19:00,
2013-04-24 10:24:00,61.2,41.3,29.98,South,189,8.1,8.1,48,0.00,,CLR,0.00,VWS V13.00,2013-04-24 14:24:00,
2013-04-24 10:29:00,60.3,40.5,29.98,SSW,192,5.8,8.3,48,0.00,,CLR,0.00,VWS V13.00,2013-04-24 14:29:00,
2013-04-24 10:35:00,60.3,40.5,29.98,SSW,195,4.0,8.3,48,0.00,,CLR,0.00,VWS V13.00,2013-04-24 14:35:00,
2013-04-24 10:40:00,61.2,40.8,29.98,SSW,193,6.3,8.3,47,0.00,,CLR,0.00,VWS V13.00,2013-04-24 14:40:00,
2013-04-24 10:45:00,61.0,40.6,29.98,West,268,4.0,8.3,47,0.00,,CLR,0.00,VWS V13.00,2013-04-24 14:45:00,
2013-04-24 10:50:00,60.6,40.3,29.98,WSW,242,4.0,8.7,47,0.00,,CLR,0.00,VWS V13.00,2013-04-24 14:50:00,
2013-04-24 10:55:00,60.4,40.7,29.98,SSW,212,6.3,8.7,48,0.00,,CLR,0.00,VWS V13.00,2013-04-24 14:55:00,
2013-04-24 11:00:00,61.3,41.0,29.98,SW,228,7.6,10.5,47,0.00,,CLR,0.00,VWS V13.00,2013-04-24 15:00:00,
2013-04-24 11:05:00,61.9,41.5,29.98,SSW,202,7.6,8.3,47,0.00,,CLR,0.00,VWS V13.00,2013-04-24 15:05:00,
2013-04-24 11:10:00,62.4,41.9,29.98,South,191,4.0,8.7,47,0.00,,CLR,0.00,VWS V13.00,2013-04-24 15:10:00,
2013-04-24 11:15:00,63.5,42.4,29.95,SSW,212,6.3,10.5,46,0.00,,CLR,0.00,VWS V13.00,2013-04-24 15:15:00,
2013-04-24 11:20:00,64.0,42.9,29.95,South,190,5.4,10.5,46,0.00,,CLR,0.00,VWS V13.00,2013-04-24 15:20:00,
2013-04-24 11:25:00,63.9,42.1,29.95,SW,216,5.8,12.8,45,0.00,,CLR,0.00,VWS V13.00,2013-04-24 15:25:00,
2013-04-24 11:30:00,64.2,43.0,29.95,SW,228,6.3,12.8,46,0.00,,CLR,0.00,VWS V13.00,2013-04-24 15:30:00,
2013-04-24 11:35:00,64.4,42.6,29.95,NW,304,5.8,12.8,45,0.00,,CLR,0.00,VWS V13.00,2013-04-24 15:35:00,
2013-04-24 11:40:00,64.8,43.0,29.95,West,262,3.1,12.8,45,0.00,,CLR,0.00,VWS V13.00,2013-04-24 15:40:00,
2013-04-24 11:45:00,65.7,43.8,29.95,SSW,202,4.9,8.7,45,0.00,,CLR,0.00,VWS V13.00,2013-04-24 15:45:00,
2013-04-24 11:50:00,64.9,42.5,29.95,West,270,2.7,8.7,44,0.00,,CLR,0.00,VWS V13.00,2013-04-24 15:50:00,
2013-04-24 11:55:00,66.0,43.5,29.95,West,265,5.8,8.7,44,0.00,,CLR,0.00,VWS V13.00,2013-04-24 15:55:00,
2013-04-24 12:00:00,66.6,44.0,29.92,SSW,195,4.0,8.7,44,0.00,,CLR,0.00,VWS V13.00,2013-04-24 16:00:00,
2013-04-24 12:05:00,67.3,44.7,29.92,SSE,168,5.4,8.3,44,0.00,,CLR,0.00,VWS V13.00,2013-04-24 16:05:00,
2013-04-24 12:11:00,67.5,44.2,29.92,South,189,5.8,8.3,43,0.00,,CLR,0.00,VWS V13.00,2013-04-24 16:11:00,
2013-04-24 12:16:00,67.8,44.5,29.92,South,180,6.3,10.1,43,0.00,,CLR,0.00,VWS V13.00,2013-04-24 16:16:00,
2013-04-24 12:21:00,68.2,44.2,29.92,South,187,2.7,2.7,42,0.00,,CLR,0.00,VWS V13.00,2013-04-24 16:21:00,
2013-04-24 12:26:00,68.5,44.6,29.92,South,183,3.1,7.6,42,0.00,,CLR,0.00,VWS V13.00,2013-04-24 16:26:00,
2013-04-24 12:31:00,69.4,45.4,29.92,SSW,213,7.6,7.6,42,0.00,,CLR,0.00,VWS V13.00,2013-04-24 16:31:00,
2013-04-24 12:36:00,69.8,45.1,29.92,SW,226,6.3,8.3,41,0.00,,CLR,0.00,VWS V13.00,2013-04-24 16:36:00,
2013-04-24 12:41:00,69.8,44.4,29.92,SE,145,4.5,4.5,40,0.00,,CLR,0.00,VWS V13.00,2013-04-24 16:41:00,
2013-04-24 12:46:00,70.3,44.9,29.92,South,186,6.3,8.7,40,0.00,,CLR,0.00,VWS V13.00,2013-04-24 16:46:00,
2013-04-24 12:51:00,70.2,44.1,29.92,SE,139,7.6,11.0,39,0.00,,CLR,0.00,VWS V13.00,2013-04-24 16:51:00,
2013-04-24 12:56:00,70.0,43.9,29.92,South,178,8.1,11.0,39,0.00,,CLR,0.00,VWS V13.00,2013-04-24 16:56:00,
2013-04-24 13:01:00,70.0,43.9,29.89,South,176,9.6,9.6,39,0.00,,CLR,0.00,VWS V13.00,2013-04-24 17:01:00,
2013-04-24 13:06:00,70.5,44.4,29.89,West,265,6.3,10.5,39,0.00,,CLR,0.00,VWS V13.00,2013-04-24 17:06:00,
2013-04-24 13:11:00,70.7,43.9,29.89,South,188,6.3,11.0,38,0.00,,CLR,0.00,VWS V13.00,2013-04-24 17:11:00,
2013-04-24 13:16:00,71.1,44.2,29.89,SSW,210,8.3,11.0,38,0.00,,CLR,0.00,VWS V13.00,2013-04-24 17:16:00,
2013-04-24 13:21:00,70.9,44.0,29.89,SSE,154,6.3,6.3,38,0.00,,CLR,0.00,VWS V13.00,2013-04-24 17:21:00,
2013-04-24 13:26:00,71.1,44.2,29.89,SSW,207,5.4,10.5,38,0.00,,CLR,0.00,VWS V13.00,2013-04-24 17:26:00,
2013-04-24 13:31:00,71.6,44.7,29.89,South,178,5.4,10.5,38,0.00,,CLR,0.00,VWS V13.00,2013-04-24 17:31:00,
2013-04-24 13:36:00,71.6,44.7,29.89,SSW,210,6.3,11.9,38,0.00,,CLR,0.00,VWS V13.00,2013-04-24 17:36:00,
2013-04-24 13:41:00,72.1,45.2,29.89,SW,220,8.3,8.3,38,0.00,,CLR,0.00,VWS V13.00,2013-04-24 17:41:00,
2013-04-24 13:46:00,72.3,45.3,29.89,South,173,8.7,10.1,38,0.00,,CLR,0.00,VWS V13.00,2013-04-24 17:46:00,
2013-04-24 13:51:00,71.8,44.1,29.89,SSW,203,8.7,12.3,37,0.00,,CLR,0.00,VWS V13.00,2013-04-24 17:51:00,
2013-04-24 13:56:00,72.3,44.6,29.89,South,189,8.7,12.3,37,0.00,,CLR,0.00,VWS V13.00,2013-04-24 17:56:00,
2013-04-24 14:01:00,72.1,44.5,29.89,SSW,194,5.8,6.3,37,0.00,,CLR,0.00,VWS V13.00,2013-04-24 18:01:00,
2013-04-24 14:06:00,73.0,46.0,29.89,SW,227,5.4,8.7,38,0.00,,CLR,0.00,VWS V13.00,2013-04-24 18:06:00,
2013-04-24 14:11:00,73.0,45.2,29.89,SSE,154,6.3,10.1,37,0.00,,CLR,0.00,VWS V13.00,2013-04-24 18:11:00,
2013-04-24 14:16:00,72.5,44.1,29.86,South,177,6.3,10.5,36,0.00,,CLR,0.00,VWS V13.00,2013-04-24 18:16:00,
2013-04-24 14:21:00,72.7,44.9,29.86,South,181,6.3,8.1,37,0.00,,CLR,0.00,VWS V13.00,2013-04-24 18:21:00,
2013-04-24 14:27:00,72.9,45.1,29.86,SW,227,4.9,8.3,37,0.00,,CLR,0.00,VWS V13.00,2013-04-24 18:27:00,
2013-04-24 14:32:00,73.6,45.7,29.86,SSW,203,5.8,9.2,37,0.00,,CLR,0.00,VWS V13.00,2013-04-24 18:32:00,
2013-04-24 14:37:00,73.8,45.2,29.86,South,171,10.5,10.5,36,0.00,,CLR,0.00,VWS V13.00,2013-04-24 18:37:00,
2013-04-24 14:42:00,73.4,44.8,29.86,South,183,8.1,8.1,36,0.00,,CLR,0.00,VWS V13.00,2013-04-24 18:42:00,
2013-04-24 14:47:00,73.4,44.8,29.83,SSE,162,8.1,10.5,36,0.00,,CLR,0.00,VWS V13.00,2013-04-24 18:47:00,
2013-04-24 14:52:00,73.0,45.2,29.83,SSE,148,11.0,11.0,37,0.00,,CLR,0.00,VWS V13.00,2013-04-24 18:52:00,
2013-04-24 14:57:00,73.8,45.9,29.83,South,176,5.4,11.0,37,0.00,,CLR,0.00,VWS V13.00,2013-04-24 18:57:00,
2013-04-24 15:02:00,74.1,45.5,29.83,SSW,206,7.6,8.3,36,0.00,,CLR,0.00,VWS V13.00,2013-04-24 19:02:00,
2013-04-24 15:07:00,73.9,45.3,29.83,SE,127,7.6,10.5,36,0.00,,CLR,0.00,VWS V13.00,2013-04-24 19:07:00,
2013-04-24 15:12:00,73.9,45.3,29.83,South,183,8.1,11.0,36,0.00,,CLR,0.00,VWS V13.00,2013-04-24 19:12:00,
2013-04-24 15:17:00,74.5,45.8,29.83,SW,214,3.6,11.0,36,0.00,,CLR,0.00,VWS V13.00,2013-04-24 19:17:00,
2013-04-24 15:22:00,74.7,46.0,29.83,SW,221,7.6,8.7,36,0.00,,CLR,0.00,VWS V13.00,2013-04-24 19:22:00,
2013-04-24 15:27:00,74.5,45.8,29.83,SSE,150,10.5,10.5,36,0.00,,CLR,0.00,VWS V13.00,2013-04-24 19:27:00,
2013-04-24 15:32:00,74.1,45.5,29.83,SSW,204,5.4,12.3,36,0.00,,CLR,0.00,VWS V13.00,2013-04-24 19:32:00,
2013-04-24 15:37:00,73.4,44.8,29.83,WSW,247,8.1,12.3,36,0.00,,CLR,0.00,VWS V13.00,2013-04-24 19:37:00,
2013-04-24 15:43:00,72.9,44.4,29.83,SW,215,7.6,10.1,36,0.00,,CLR,0.00,VWS V13.00,2013-04-24 19:43:00,
2013-04-24 15:48:00,72.9,45.1,29.83,SSW,208,8.7,11.0,37,0.00,,CLR,0.00,VWS V13.00,2013-04-24 19:48:00,
2013-04-24 15:53:00,73.0,45.2,29.83,SW,224,3.6,11.0,37,0.00,,CLR,0.00,VWS V13.00,2013-04-24 19:53:00,
2013-04-24 15:58:00,73.8,45.9,29.83,South,179,8.7,11.0,37,0.00,,CLR,0.00,VWS V13.00,2013-04-24 19:58:00,
2013-04-24 16:03:00,73.6,45.7,29.83,SSE,166,7.6,8.1,37,0.00,,CLR,0.00,VWS V13.00,2013-04-24 20:03:00,
2013-04-24 16:08:00,73.6,45.7,29.83,SSW,196,6.3,8.7,37,0.00,,CLR,0.00,VWS V13.00,2013-04-24 20:08:00,
2013-04-24 16:13:00,73.4,45.6,29.80,SE,128,5.4,10.5,37,0.00,,CLR,0.00,VWS V13.00,2013-04-24 20:13:00,
2013-04-24 16:18:00,73.6,45.7,29.80,SW,227,8.3,11.0,37,0.00,,CLR,0.00,VWS V13.00,2013-04-24 20:18:00,
2013-04-24 16:23:00,72.7,44.9,29.80,South,187,5.8,8.7,37,0.00,,CLR,0.00,VWS V13.00,2013-04-24 20:23:00,
2013-04-24 16:28:00,72.5,45.5,29.80,South,173,5.8,8.7,38,0.00,,CLR,0.00,VWS V13.00,2013-04-24 20:28:00,
2013-04-24 16:33:00,72.3,45.3,29.80,SSW,196,5.8,8.7,38,0.00,,CLR,0.00,VWS V13.00,2013-04-24 20:33:00,
2013-04-24 16:38:00,72.3,46.0,29.80,South,187,5.8,8.7,39,0.00,,CLR,0.00,VWS V13.00,2013-04-24 20:38:00,
2013-04-24 16:43:00,72.3,46.0,29.80,SSW,199,5.8,8.3,39,0.00,,CLR,0.00,VWS V13.00,2013-04-24 20:43:00,
2013-04-24 16:48:00,71.2,45.7,29.80,SSW,206,5.8,10.5,40,0.00,,CLR,0.00,VWS V13.00,2013-04-24 20:48:00,
2013-04-24 16:53:00,71.4,45.9,29.80,West,273,4.9,10.5,40,0.00,,CLR,0.00,VWS V13.00,2013-04-24 20:53:00,
2013-04-24 16:58:00,71.2,45.7,29.80,SW,230,5.8,10.5,40,0.00,,CLR,0.00,VWS V13.00,2013-04-24 20:58:00,
2013-04-24 17:04:00,70.9,46.0,29.80,South,179,7.6,10.5,41,0.00,,CLR,0.00,VWS V13.00,2013-04-24 21:04:00,
2013-04-24 17:09:00,70.5,45.7,29.80,SSE,159,5.8,10.5,41,0.00,,CLR,0.00,VWS V13.00,2013-04-24 21:09:00,
2013-04-24 17:14:00,70.5,45.7,29.80,SSE,157,8.3,10.5,41,0.00,,CLR,0.00,VWS V13.00,2013-04-24 21:14:00,
2013-04-24 17:19:00,70.3,46.2,29.80,South,181,5.4,10.5,42,0.00,,CLR,0.00,VWS V13.00,2013-04-24 21:19:00,
2013-04-24 17:24:00,70.3,46.2,29.80,South,178,5.4,8.7,42,0.00,,CLR,0.00,VWS V13.00,2013-04-24 21:24:00,
2013-04-24 17:29:00,70.2,46.0,29.78,SSE,167,8.1,8.7,42,0.00,,CLR,0.00,VWS V13.00,2013-04-24 21:29:00,
2013-04-24 17:34:00,70.0,45.9,29.78,SSE,163,10.1,10.1,42,0.00,,CLR,0.00,VWS V13.00,2013-04-24 21:34:00,
2013-04-24 17:39:00,69.8,46.3,29.78,South,177,5.8,11.0,43,0.00,,CLR,0.00,VWS V13.00,2013-04-24 21:39:00,
2013-04-24 17:44:00,69.6,46.2,29.78,SSE,158,8.7,11.0,43,0.00,,CLR,0.00,VWS V13.00,2013-04-24 21:44:00,
2013-04-24 17:49:00,69.6,46.8,29.78,SSW,192,8.1,11.0,44,0.00,,CLR,0.00,VWS V13.00,2013-04-24 21:49:00,
2013-04-24 17:54:00,69.4,46.6,29.78,SSE,168,6.3,11.0,44,0.00,,CLR,0.00,VWS V13.00,2013-04-24 21:54:00,
2013-04-24 17:59:00,69.1,45.7,29.78,South,184,8.3,11.0,43,0.00,,CLR,0.00,VWS V13.00,2013-04-24 21:59:00,
2013-04-24 18:04:00,68.9,46.1,29.78,South,190,6.3,9.6,44,0.00,,CLR,0.00,VWS V13.00,2013-04-24 22:04:00,
2013-04-24 18:09:00,68.5,45.8,29.78,SSW,201,6.3,10.1,44,0.00,,CLR,0.00,VWS V13.00,2013-04-24 22:09:00,
2013-04-24 18:15:00,68.4,45.6,29.78,South,180,7.6,10.1,44,0.00,,CLR,0.00,VWS V13.00,2013-04-24 22:15:00,
2013-04-24 18:20:00,68.0,45.9,29.78,South,188,8.1,10.5,45,0.00,,CLR,0.00,VWS V13.00,2013-04-24 22:20:00,
2013-04-24 18:25:00,67.8,45.7,29.78,SSW,199,5.8,9.6,45,0.00,,CLR,0.00,VWS V13.00,2013-04-24 22:25:00,
2013-04-24 18:30:00,67.6,46.1,29.78,SSW,198,6.3,10.5,46,0.00,,CLR,0.00,VWS V13.00,2013-04-24 22:30:00,
2013-04-24 18:35:00,67.6,46.1,29.78,SW,229,10.1,10.5,46,0.00,,CLR,0.00,VWS V13.00,2013-04-24 22:35:00,
2013-04-24 18:40:00,67.3,46.4,29.78,South,183,8.7,10.5,47,0.00,,CLR,0.00,VWS V13.00,2013-04-24 22:40:00,
2013-04-24 18:45:00,66.9,46.0,29.78,SSW,194,4.9,10.5,47,0.00,,CLR,0.00,VWS V13.00,2013-04-24 22:45:00,
2013-04-24 18:50:00,66.7,46.5,29.78,South,182,8.3,11.0,48,0.00,,CLR,0.00,VWS V13.00,2013-04-24 22:50:00,
2013-04-24 18:55:00,66.6,46.3,29.78,SSW,200,5.8,11.0,48,0.00,,CLR,0.00,VWS V13.00,2013-04-24 22:55:00,
2013-04-24 19:00:00,66.4,46.1,29.78,SSW,207,8.3,12.8,48,0.00,,CLR,0.00,VWS V13.00,2013-04-24 23:00:00,
2013-04-24 19:05:00,66.2,46.5,29.78,South,180,5.8,8.7,49,0.00,,CLR,0.00,VWS V13.00,2013-04-24 23:05:00,
2013-04-24 19:10:00,66.0,46.3,29.78,SW,233,4.9,8.7,49,0.00,,CLR,0.00,VWS V13.00,2013-04-24 23:10:00,
2013-04-24 19:15:00,65.8,46.7,29.78,South,187,6.3,8.7,50,0.00,,CLR,0.00,VWS V13.00,2013-04-24 23:15:00,
2013-04-24 19:20:00,65.7,46.5,29.78,SSW,195,4.9,8.7,50,0.00,,CLR,0.00,VWS V13.00,2013-04-24 23:20:00,
2013-04-24 19:26:00,65.5,46.9,29.78,SSW,208,4.9,6.3,51,0.00,,CLR,0.00,VWS V13.00,2013-04-24 23:26:00,
2013-04-24 19:31:00,65.1,46.6,29.80,SSW,205,5.4,7.6,51,0.00,,CLR,0.00,VWS V13.00,2013-04-24 23:31:00,
2013-04-24 19:36:00,64.9,46.9,29.80,SW,216,4.9,8.3,52,0.00,,CLR,0.00,VWS V13.00,2013-04-24 23:36:00,
2013-04-24 19:41:00,64.8,46.7,29.80,SSW,193,6.3,6.3,52,0.00,,CLR,0.00,VWS V13.00,2013-04-24 23:41:00,
2013-04-24 19:46:00,64.6,47.1,29.80,SSE,168,8.3,8.3,53,0.00,,CLR,0.00,VWS V13.00,2013-04-24 23:46:00,
2013-04-24 19:51:00,64.4,46.9,29.80,SW,219,5.4,8.3,53,0.00,,CLR,0.00,VWS V13.00,2013-04-24 23:51:00,
2013-04-24 19:56:00,64.2,47.2,29.80,WSW,248,4.0,8.3,54,0.00,,CLR,0.00,VWS V13.00,2013-04-24 23:56:00,
2013-04-24 20:01:00,64.2,47.7,29.80,SSW,203,4.9,5.8,55,0.00,,CLR,0.00,VWS V13.00,2013-04-25 00:01:00,
2013-04-24 20:06:00,63.9,47.4,29.80,SW,223,4.5,6.3,55,0.00,,CLR,0.00,VWS V13.00,2013-04-25 00:06:00,
2013-04-24 20:11:00,63.9,47.9,29.80,SW,221,5.4,8.1,56,0.00,,CLR,0.00,VWS V13.00,2013-04-25 00:11:00,
2013-04-24 20:16:00,63.7,47.7,29.80,SSW,205,6.3,8.1,56,0.00,,CLR,0.00,VWS V13.00,2013-04-25 00:16:00,
2013-04-24 20:21:00,63.5,47.5,29.80,South,174,5.4,5.4,56,0.00,,CLR,0.00,VWS V13.00,2013-04-25 00:21:00,
2013-04-24 20:26:00,63.3,47.8,29.80,SSW,193,3.6,7.6,57,0.00,,CLR,0.00,VWS V13.00,2013-04-25 00:26:00,
2013-04-24 20:32:00,63.3,47.8,29.80,SW,219,5.4,7.6,57,0.00,,CLR,0.00,VWS V13.00,2013-04-25 00:32:00,
2013-04-24 20:37:00,63.1,47.7,29.80,SSW,194,5.8,7.6,57,0.00,,CLR,0.00,VWS V13.00,2013-04-25 00:37:00,
2013-04-24 20:42:00,63.1,48.1,29.80,SW,223,4.0,5.8,58,0.00,,CLR,0.00,VWS V13.00,2013-04-25 00:42:00,
2013-04-24 20:47:00,63.1,48.1,29.80,South,185,4.9,6.7,58,0.00,,CLR,0.00,VWS V13.00,2013-04-25 00:47:00,
2013-04-24 20:52:00,63.1,48.1,29.80,South,191,4.0,6.7,58,0.00,,CLR,0.00,VWS V13.00,2013-04-25 00:52:00,
2013-04-24 20:57:00,63.0,48.4,29.80,South,189,8.1,8.1,59,0.00,,CLR,0.00,VWS V13.00,2013-04-25 00:57:00,
2013-04-24 21:02:00,63.1,48.6,29.80,SSW,204,5.8,6.3,59,0.00,,CLR,0.00,VWS V13.00,2013-04-25 01:02:00,
2013-04-24 21:07:00,63.1,48.6,29.80,SW,217,3.1,6.7,59,0.00,,CLR,0.00,VWS V13.00,2013-04-25 01:07:00,
2013-04-24 21:12:00,63.1,48.6,29.83,South,178,5.8,6.7,59,0.00,,CLR,0.00,VWS V13.00,2013-04-25 01:12:00,
2013-04-24 21:17:00,63.1,48.6,29.83,SSW,203,8.1,8.3,59,0.00,,CLR,0.00,VWS V13.00,2013-04-25 01:17:00,
2013-04-24 21:22:00,63.1,49.0,29.83,SSW,206,5.8,9.6,60,0.00,,CLR,0.00,VWS V13.00,2013-04-25 01:22:00,
2013-04-24 21:27:00,63.1,49.0,29.80,SSW,205,5.8,9.6,60,0.00,,CLR,0.00,VWS V13.00,2013-04-25 01:27:00,
2013-04-24 21:32:00,63.0,48.9,29.80,SW,214,4.9,9.6,60,0.00,,SCT100,0.00,VWS V13.00,2013-04-25 01:32:00,
2013-04-24 21:37:00,62.6,48.5,29.80,SSW,200,5.8,9.6,60,0.00,,SCT100,0.00,VWS V13.00,2013-04-25 01:37:00,
2013-04-24 21:43:00,62.6,48.5,29.83,SSW,198,4.9,8.3,60,0.00,,SCT100,0.00,VWS V13.00,2013-04-25 01:43:00,
2013-04-24 21:48:00,62.8,49.2,29.83,SSW,211,6.3,8.3,61,0.00,,SCT100,0.00,VWS V13.00,2013-04-25 01:48:00,
2013-04-24 21:53:00,62.6,49.0,29.83,South,175,5.8,8.7,61,0.00,,SCT100,0.00,VWS V13.00,2013-04-25 01:53:00,
2013-04-24 21:58:00,62.6,49.0,29.83,South,179,8.1,8.7,61,0.00,,SCT100,0.00,VWS V13.00,2013-04-25 01:58:00,
2013-04-24 22:03:00,62.2,49.1,29.83,SSE,167,4.0,5.8,62,0.00,,SCT100,0.00,VWS V13.00,2013-04-25 02:03:00,
2013-04-24 22:08:00,61.9,48.7,29.83,SSE,168,4.9,8.1,62,0.00,,SCT100,0.00,VWS V13.00,2013-04-25 02:08:00,
2013-04-24 22:13:00,61.5,48.8,29.83,South,173,5.4,8.1,63,0.00,,SCT100,0.00,VWS V13.00,2013-04-25 02:13:00,
2013-04-24 22:18:00,61.3,48.7,29.83,SSW,206,5.4,8.1,63,0.00,,SCT100,0.00,VWS V13.00,2013-04-25 02:18:00,
2013-04-24 22:24:00,61.2,48.9,29.83,SSW,196,5.4,6.3,64,0.00,,SCT100,0.00,VWS V13.00,2013-04-25 02:24:00,
2013-04-24 22:29:00,61.0,48.7,29.83,South,188,6.3,6.3,64,0.00,,SCT100,0.00,VWS V13.00,2013-04-25 02:29:00,
2013-04-24 22:34:00,61.0,48.7,29.83,SSW,203,4.9,6.3,64,0.00,,BKN090,0.00,VWS V13.00,2013-04-25 02:34:00,
2013-04-24 22:39:00,60.8,49.0,29.83,SSW,198,4.9,7.6,65,0.00,,BKN090,0.00,VWS V13.00,2013-04-25 02:39:00,
2013-04-24 22:44:00,60.4,49.4,29.83,South,178,7.6,7.6,67,0.00,,BKN090,0.00,VWS V13.00,2013-04-25 02:44:00,
2013-04-24 22:49:00,60.1,49.5,29.83,SSW,198,4.9,7.6,68,0.00,,BKN090,0.00,VWS V13.00,2013-04-25 02:49:00,
2013-04-24 22:54:00,59.9,49.7,29.83,SSW,197,5.4,7.6,69,0.00,,BKN090,0.00,VWS V13.00,2013-04-25 02:54:00,
2013-04-24 22:59:00,59.7,49.9,29.83,SSW,195,4.5,7.6,70,0.00,,BKN090,0.00,VWS V13.00,2013-04-25 02:59:00,
2013-04-24 23:04:00,59.5,49.8,29.83,South,179,5.4,6.3,70,0.00,,BKN090,0.00,VWS V13.00,2013-04-25 03:04:00,
2013-04-24 23:09:00,59.4,49.6,29.83,SW,221,7.6,7.6,70,0.00,,BKN090,0.00,VWS V13.00,2013-04-25 03:09:00,
2013-04-24 23:14:00,59.0,49.2,29.80,SSW,212,4.0,7.6,70,0.00,,BKN090,0.00,VWS V13.00,2013-04-25 03:14:00,
2013-04-24 23:19:00,59.0,49.2,29.80,SSW,194,6.3,7.6,70,0.00,,BKN090,0.00,VWS V13.00,2013-04-25 03:19:00,
2013-04-24 23:24:00,59.0,49.6,29.80,South,170,4.9,8.1,71,0.00,,BKN090,0.00,VWS V13.00,2013-04-25 03:24:00,
2013-04-24 23:30:00,59.0,49.6,29.80,SSW,197,3.6,8.1,71,0.00,,BKN090,0.00,VWS V13.00,2013-04-25 03:30:00,
2013-04-24 23:35:00,58.8,49.5,29.80,SSW,200,3.6,8.1,71,0.00,,OVC110,0.00,VWS V13.00,2013-04-25 03:35:00,
2013-04-24 23:40:00,58.8,49.5,29.80,SSW,198,3.6,8.1,71,0.00,,OVC110,0.00,VWS V13.00,2013-04-25 03:40:00,
2013-04-24 23:45:00,58.8,49.8,29.80,SW,224,4.0,4.0,72,0.00,,OVC110,0.00,VWS V13.00,2013-04-25 03:45:00,
2013-04-24 23:50:00,58.8,49.8,29.80,SSW,192,3.6,4.5,72,0.00,,OVC110,0.00,VWS V13.00,2013-04-25 03:50:00,
2013-04-24 23:55:00,58.8,49.8,29.80,SW,218,4.9,4.9,72,0.00,,OVC110,0.00,VWS V13.00,2013-04-25 03:55:00,